Time;durP1;ratioP1;P1;durP2;ratioP2;P2;SDS_P1;SDS_P2;PMS_P1;PMS_P2;Temp;Humidity;BMP_temperature;BMP_pressure;BME280_temperature;BME280_humidity;BME280_pressure;Samples;Min_cycle;Max_cycle;Signal;HPM_P1;HPM_P2
2023/06/18 00:02:06;;;;;;;27.92;17.70;;;;;;;;;;5070408;28;20043;-78
2023/06/18 00:04:32;;;;;;;26.92;17.45;;;;;;;;;;5053357;28;20040;-82
2023/06/18 00:06:58;;;;;;;26.58;17.73;;;;;;;;;;5103947;28;20043;-79
2023/06/18 00:09:24;;;;;;;29.60;19.42;;;;;;;;;;5070270;28;20527;-78
2023/06/18 00:11:51;;;;;;;31.20;18.80;;;;;;;;;;5069673;28;20052;-78
2023/06/18 00:14:17;;;;;;;31.60;18.98;;;;;;;;;;5070222;28;20044;-81
2023/06/18 00:16:43;;;;;;;25.17;16.73;;;;;;;;;;5071705;28;20044;-82
2023/06/18 00:19:09;;;;;;;28.85;17.08;;;;;;;;;;5073686;28;20033;-82
2023/06/18 00:21:37;;;;;;;26.80;17.90;;;;;;;;;;5073397;28;20048;-82
2023/06/18 00:24:03;;;;;;;29.45;17.45;;;;;;;;;;5073622;28;20109;-82
2023/06/18 00:26:29;;;;;;;30.63;19.60;;;;;;;;;;5073619;28;20040;-82
2023/06/18 00:28:55;;;;;;;29.50;18.48;;;;;;;;;;5056410;28;20082;-78
2023/06/18 00:31:21;;;;;;;28.38;18.38;;;;;;;;;;5073484;28;20127;-82
2023/06/18 00:33:48;;;;;;;30.20;19.50;;;;;;;;;;5073144;28;20105;-82
2023/06/18 00:36:15;;;;;;;30.90;19.92;;;;;;;;;;5074813;28;20044;-81
2023/06/18 00:38:46;;;;;;;30.15;19.50;;;;;;;;;;5072990;28;20055;-78
2023/06/18 00:41:13;;;;;;;29.00;18.73;;;;;;;;;;5073385;28;20120;-78
2023/06/18 00:43:39;;;;;;;30.00;18.90;;;;;;;;;;5072970;28;20110;-81
2023/06/18 00:46:07;;;;;;;31.00;19.20;;;;;;;;;;5073324;28;20123;-82
2023/06/18 00:48:35;;;;;;;28.92;19.13;;;;;;;;;;5073194;28;20391;-82
2023/06/18 00:51:03;;;;;;;30.50;19.63;;;;;;;;;;5073156;28;20053;-81
2023/06/18 00:53:30;;;;;;;33.10;19.77;;;;;;;;;;5073284;28;20051;-81
2023/06/18 00:55:57;;;;;;;28.17;17.92;;;;;;;;;;5072630;28;20056;-81
2023/06/18 00:58:23;;;;;;;34.08;21.58;;;;;;;;;;5072898;28;20052;-79
2023/06/18 01:00:50;;;;;;;31.35;20.15;;;;;;;;;;5072993;28;20114;-78
2023/06/18 01:03:17;;;;;;;35.53;22.10;;;;;;;;;;5056664;28;20048;-78
2023/06/18 01:05:45;;;;;;;37.28;21.52;;;;;;;;;;5056231;28;20485;-78
2023/06/18 01:08:12;;;;;;;30.80;20.40;;;;;;;;;;5072758;28;20108;-78
2023/06/18 01:10:40;;;;;;;35.72;21.63;;;;;;;;;;5051590;28;20045;-78
2023/06/18 01:13:10;;;;;;;35.85;21.20;;;;;;;;;;5019852;28;20036;-78
2023/06/18 01:15:37;;;;;;;37.47;22.10;;;;;;;;;;5040474;28;20064;-78
2023/06/18 01:18:06;;;;;;;40.13;22.73;;;;;;;;;;5052534;28;20072;-78
2023/06/18 01:20:32;;;;;;;37.40;23.02;;;;;;;;;;5052883;28;20056;-78
2023/06/18 01:23:02;;;;;;;35.63;22.17;;;;;;;;;;5052349;28;20405;-78
2023/06/18 01:25:32;;;;;;;37.63;22.73;;;;;;;;;;5052910;28;20060;-78
2023/06/18 01:28:03;;;;;;;34.15;21.63;;;;;;;;;;5050824;28;20055;-78
2023/06/18 01:30:29;;;;;;;31.65;20.27;;;;;;;;;;5052445;28;20045;-78
2023/06/18 01:32:55;;;;;;;39.38;24.20;;;;;;;;;;5052108;28;20448;-78
2023/06/18 01:35:21;;;;;;;36.47;22.83;;;;;;;;;;5052496;28;20040;-78
2023/06/18 01:37:48;;;;;;;38.95;22.95;;;;;;;;;;5051901;28;20063;-78
2023/06/18 01:40:27;;;;;;;34.00;21.90;;;;;;;;;;5052323;28;20053;-78
2023/06/18 01:43:00;;;;;;;35.10;22.48;;;;;;;;;;5052090;28;20478;-78
2023/06/18 01:45:41;;;;;;;38.45;22.95;;;;;;;;;;5053835;28;20040;-82
2023/06/18 01:48:07;;;;;;;38.92;23.27;;;;;;;;;;5052163;28;20048;-78
2023/06/18 01:50:35;;;;;;;41.60;23.65;;;;;;;;;;5039350;28;20517;-81
2023/06/18 01:53:03;;;;;;;40.33;23.58;;;;;;;;;;5052013;28;20043;-82
2023/06/18 01:55:29;;;;;;;40.13;23.63;;;;;;;;;;5057747;28;20048;-81
2023/06/18 01:57:56;;;;;;;39.13;23.58;;;;;;;;;;5071506;28;20131;-82
2023/06/18 02:00:22;;;;;;;43.03;24.50;;;;;;;;;;5038763;28;20072;-82
2023/06/18 02:02:51;;;;;;;45.50;24.70;;;;;;;;;;5054399;28;20037;-78
2023/06/18 02:05:18;;;;;;;46.95;25.73;;;;;;;;;;5051501;28;20071;-78
2023/06/18 02:07:44;;;;;;;43.58;25.55;;;;;;;;;;5034736;28;20040;-78
2023/06/18 02:10:10;;;;;;;36.80;22.25;;;;;;;;;;5051394;28;20041;-78
2023/06/18 02:12:36;;;;;;;48.20;25.40;;;;;;;;;;5035081;28;20037;-78
2023/06/18 02:15:03;;;;;;;45.13;24.98;;;;;;;;;;5051260;28;20045;-78
2023/06/18 02:17:29;;;;;;;45.97;24.77;;;;;;;;;;5052040;28;20532;-78
2023/06/18 02:19:55;;;;;;;43.75;24.98;;;;;;;;;;5051591;28;20045;-78
2023/06/18 02:22:22;;;;;;;44.72;25.27;;;;;;;;;;5053329;28;20048;-78
2023/06/18 02:24:48;;;;;;;45.08;25.83;;;;;;;;;;5051773;28;20520;-78
2023/06/18 02:27:15;;;;;;;45.95;26.27;;;;;;;;;;5051817;28;20494;-78
2023/06/18 02:29:42;;;;;;;41.97;24.15;;;;;;;;;;5051202;28;20040;-78
2023/06/18 02:32:08;;;;;;;41.88;24.92;;;;;;;;;;5052230;28;20052;-78
2023/06/18 02:34:35;;;;;;;46.55;25.15;;;;;;;;;;5051334;28;20036;-78
2023/06/18 02:37:01;;;;;;;47.55;26.70;;;;;;;;;;5052873;28;20045;-78
2023/06/18 02:39:27;;;;;;;48.15;25.95;;;;;;;;;;5050776;28;20057;-78
2023/06/18 02:41:53;;;;;;;44.88;25.42;;;;;;;;;;5050917;28;20095;-78
2023/06/18 02:44:19;;;;;;;45.42;24.63;;;;;;;;;;5034867;28;20127;-78
2023/06/18 02:46:45;;;;;;;47.28;25.02;;;;;;;;;;5034533;28;20049;-78
2023/06/18 02:49:12;;;;;;;46.03;25.90;;;;;;;;;;5050703;28;20041;-81
2023/06/18 02:51:38;;;;;;;48.45;26.58;;;;;;;;;;5052445;28;20033;-81
2023/06/18 02:54:04;;;;;;;49.45;25.95;;;;;;;;;;5034304;28;20551;-81
2023/06/18 02:56:30;;;;;;;48.88;26.17;;;;;;;;;;5034877;28;20077;-82
2023/06/18 02:58:56;;;;;;;46.95;25.13;;;;;;;;;;5034334;28;20048;-81
2023/06/18 03:01:26;;;;;;;47.97;26.20;;;;;;;;;;5034469;28;20052;-81
2023/06/18 03:03:53;;;;;;;49.13;26.70;;;;;;;;;;5051054;28;20524;-82
2023/06/18 03:06:19;;;;;;;46.03;26.10;;;;;;;;;;5034295;28;20048;-81
2023/06/18 03:08:46;;;;;;;46.85;26.60;;;;;;;;;;5050706;28;20040;-81
2023/06/18 03:11:12;;;;;;;49.72;26.92;;;;;;;;;;5050396;28;20045;-81
2023/06/18 03:13:38;;;;;;;51.42;27.00;;;;;;;;;;5050723;28;20044;-81
2023/06/18 03:16:05;;;;;;;48.78;26.35;;;;;;;;;;5050219;28;20041;-82
2023/06/18 03:18:31;;;;;;;49.38;26.95;;;;;;;;;;5050971;28;20076;-82
2023/06/18 03:20:57;;;;;;;47.20;26.45;;;;;;;;;;5049991;28;20084;-82
2023/06/18 03:23:24;;;;;;;52.88;27.50;;;;;;;;;;5050727;28;20049;-82
2023/06/18 03:25:50;;;;;;;50.63;26.60;;;;;;;;;;5033935;28;20048;-81
2023/06/18 03:28:16;;;;;;;44.10;26.20;;;;;;;;;;5051839;28;20044;-82
2023/06/18 03:30:42;;;;;;;48.88;26.85;;;;;;;;;;5051806;28;20049;-82
2023/06/18 03:33:08;;;;;;;42.40;24.83;;;;;;;;;;5050481;28;20037;-82
2023/06/18 03:35:37;;;;;;;48.05;26.88;;;;;;;;;;5050618;28;20048;-82
2023/06/18 03:38:03;;;;;;;44.00;26.10;;;;;;;;;;5050128;28;20102;-82
2023/06/18 03:40:30;;;;;;;44.63;25.42;;;;;;;;;;5050392;28;20037;-82
2023/06/18 03:42:56;;;;;;;40.85;24.63;;;;;;;;;;5050263;28;20063;-78
2023/06/18 03:45:22;;;;;;;46.00;26.95;;;;;;;;;;5050433;28;20045;-78
2023/06/18 03:47:48;;;;;;;44.05;25.40;;;;;;;;;;5050330;28;20052;-78
2023/06/18 03:50:14;;;;;;;42.45;26.17;;;;;;;;;;5018926;28;20056;-78
2023/06/18 03:52:40;;;;;;;39.88;24.90;;;;;;;;;;5054679;28;20393;-81
2023/06/18 03:55:07;;;;;;;40.83;24.65;;;;;;;;;;5055002;28;20036;-82
2023/06/18 03:57:33;;;;;;;41.95;25.52;;;;;;;;;;5054522;28;20044;-82
2023/06/18 03:59:59;;;;;;;41.13;25.13;;;;;;;;;;5037343;28;20398;-78
2023/06/18 04:02:25;;;;;;;39.58;25.27;;;;;;;;;;5030085;28;20033;-78
2023/06/18 04:04:51;;;;;;;39.70;24.77;;;;;;;;;;5053441;28;20044;-78
2023/06/18 04:07:17;;;;;;;39.22;25.00;;;;;;;;;;5053216;28;20045;-78
2023/06/18 04:09:43;;;;;;;40.85;25.35;;;;;;;;;;5053745;28;20037;-78
2023/06/18 04:12:09;;;;;;;40.10;25.38;;;;;;;;;;5053647;28;20537;-78
2023/06/18 04:14:36;;;;;;;40.22;24.70;;;;;;;;;;5053877;28;20044;-78
2023/06/18 04:17:02;;;;;;;39.90;24.77;;;;;;;;;;5053251;28;20037;-81
2023/06/18 04:19:28;;;;;;;40.83;24.95;;;;;;;;;;5054105;28;20049;-82
2023/06/18 04:21:54;;;;;;;38.60;24.75;;;;;;;;;;5054897;28;20044;-78
2023/06/18 04:24:20;;;;;;;38.42;24.17;;;;;;;;;;5053219;28;20040;-78
2023/06/18 04:26:47;;;;;;;39.17;24.52;;;;;;;;;;5053643;28;20037;-78
2023/06/18 04:29:13;;;;;;;39.83;24.42;;;;;;;;;;5053176;28;20448;-78
2023/06/18 04:31:39;;;;;;;37.63;24.13;;;;;;;;;;5054696;28;20049;-78
2023/06/18 04:34:05;;;;;;;41.25;24.45;;;;;;;;;;5054449;28;20507;-78
2023/06/18 04:36:31;;;;;;;39.63;24.55;;;;;;;;;;5036771;28;20033;-78
2023/06/18 04:38:57;;;;;;;36.80;24.00;;;;;;;;;;5053434;28;20052;-78
2023/06/18 04:41:23;;;;;;;37.83;24.55;;;;;;;;;;5036341;28;20037;-82
2023/06/18 04:43:50;;;;;;;37.53;24.00;;;;;;;;;;5053692;28;20522;-79
2023/06/18 04:46:16;;;;;;;37.10;24.38;;;;;;;;;;5052788;28;20049;-79
2023/06/18 04:48:42;;;;;;;37.15;23.08;;;;;;;;;;5054606;28;20037;-79
2023/06/18 04:51:09;;;;;;;34.67;22.52;;;;;;;;;;5052760;28;20045;-78
2023/06/18 04:53:35;;;;;;;36.78;24.20;;;;;;;;;;5036776;28;20044;-78
2023/06/18 04:56:01;;;;;;;40.20;24.15;;;;;;;;;;5053041;28;20624;-79
2023/06/18 04:58:28;;;;;;;38.55;23.45;;;;;;;;;;5052626;28;20087;-82
2023/06/18 05:00:54;;;;;;;34.28;22.55;;;;;;;;;;5052976;28;20455;-83
2023/06/18 05:03:20;;;;;;;36.08;22.33;;;;;;;;;;5052474;28;20130;-78
2023/06/18 05:05:46;;;;;;;34.40;22.58;;;;;;;;;;5052950;28;20399;-78
2023/06/18 05:08:12;;;;;;;32.28;23.20;;;;;;;;;;5052450;28;20095;-82
2023/06/18 05:10:38;;;;;;;37.63;23.58;;;;;;;;;;5052915;28;20052;-82
2023/06/18 05:13:04;;;;;;;35.80;23.40;;;;;;;;;;5052763;28;20036;-82
2023/06/18 05:15:31;;;;;;;35.00;23.27;;;;;;;;;;5036036;28;20045;-82
2023/06/18 05:17:57;;;;;;;33.70;22.40;;;;;;;;;;5053913;28;20044;-82
2023/06/18 05:20:26;;;;;;;33.08;23.00;;;;;;;;;;5035828;28;20044;-78
2023/06/18 05:22:52;;;;;;;33.25;21.63;;;;;;;;;;5052346;28;20079;-78
2023/06/18 05:25:18;;;;;;;35.85;23.95;;;;;;;;;;5052649;28;20497;-78
2023/06/18 05:27:44;;;;;;;33.83;21.23;;;;;;;;;;5035721;28;20048;-78
2023/06/18 05:30:10;;;;;;;35.10;23.65;;;;;;;;;;5052234;28;20110;-78
2023/06/18 05:32:37;;;;;;;35.35;23.70;;;;;;;;;;5052468;28;20491;-78
2023/06/18 05:35:03;;;;;;;35.42;23.85;;;;;;;;;;5035904;28;20041;-78
2023/06/18 05:37:29;;;;;;;34.45;22.52;;;;;;;;;;5035479;28;20051;-78
2023/06/18 05:39:55;;;;;;;36.42;22.58;;;;;;;;;;5052608;28;20076;-78
2023/06/18 05:42:21;;;;;;;32.85;23.05;;;;;;;;;;5051840;28;20048;-78
2023/06/18 05:44:47;;;;;;;33.15;22.08;;;;;;;;;;5052395;28;20553;-78
2023/06/18 05:47:13;;;;;;;33.63;22.98;;;;;;;;;;5035215;28;20041;-78
2023/06/18 05:49:39;;;;;;;34.05;22.55;;;;;;;;;;5035402;28;20029;-78
2023/06/18 05:52:05;;;;;;;35.45;22.67;;;;;;;;;;5035679;28;20490;-78
2023/06/18 05:54:32;;;;;;;34.17;23.38;;;;;;;;;;5052831;28;20075;-78
2023/06/18 05:56:58;;;;;;;34.90;20.98;;;;;;;;;;5052111;28;20049;-78
2023/06/18 05:59:24;;;;;;;33.67;22.60;;;;;;;;;;5051668;28;20045;-78
2023/06/18 06:01:51;;;;;;;28.50;21.25;;;;;;;;;;5051597;28;20045;-78
2023/06/18 06:04:17;;;;;;;34.15;22.45;;;;;;;;;;5051802;28;20048;-78
2023/06/18 06:06:43;;;;;;;34.78;22.35;;;;;;;;;;5051657;28;20052;-78
2023/06/18 06:09:09;;;;;;;32.45;22.50;;;;;;;;;;5027547;28;20522;-78
2023/06/18 06:11:36;;;;;;;30.73;21.48;;;;;;;;;;5042238;28;20486;-78
2023/06/18 06:14:03;;;;;;;32.90;21.63;;;;;;;;;;5068003;28;20498;-78
2023/06/18 06:16:29;;;;;;;33.67;22.00;;;;;;;;;;5051531;28;20109;-78
2023/06/18 06:18:55;;;;;;;32.58;20.58;;;;;;;;;;5052638;28;20110;-78
2023/06/18 06:21:21;;;;;;;30.55;20.88;;;;;;;;;;5051951;28;20402;-78
2023/06/18 06:23:47;;;;;;;30.52;20.42;;;;;;;;;;5051374;28;20045;-78
2023/06/18 06:26:13;;;;;;;24.73;19.15;;;;;;;;;;5018501;28;20044;-78
2023/06/18 06:28:40;;;;;;;27.38;18.42;;;;;;;;;;5035065;28;20041;-78
2023/06/18 06:31:06;;;;;;;24.23;18.85;;;;;;;;;;5051580;28;20138;-78
2023/06/18 06:33:32;;;;;;;28.40;18.83;;;;;;;;;;5050809;28;20090;-78
2023/06/18 06:35:58;;;;;;;26.77;18.30;;;;;;;;;;5051236;28;20041;-82
2023/06/18 06:38:25;;;;;;;25.10;17.80;;;;;;;;;;5034817;28;20076;-83
2023/06/18 06:40:51;;;;;;;24.80;18.52;;;;;;;;;;5051436;28;20095;-78
2023/06/18 06:43:17;;;;;;;26.85;17.90;;;;;;;;;;5034329;28;20437;-79
2023/06/18 06:45:43;;;;;;;27.55;19.05;;;;;;;;;;5051571;28;20033;-78
2023/06/18 06:48:09;;;;;;;25.63;18.42;;;;;;;;;;5051083;28;20037;-78
2023/06/18 06:50:35;;;;;;;25.33;18.90;;;;;;;;;;5034359;28;20112;-78
2023/06/18 06:53:01;;;;;;;25.85;18.17;;;;;;;;;;5018154;28;20045;-78
2023/06/18 06:55:27;;;;;;;24.02;17.63;;;;;;;;;;5050611;28;20044;-79
2023/06/18 06:57:53;;;;;;;23.80;16.80;;;;;;;;;;5050913;28;20045;-79
2023/06/18 07:00:20;;;;;;;26.58;18.75;;;;;;;;;;5034271;28;20182;-78
2023/06/18 07:02:46;;;;;;;23.75;17.20;;;;;;;;;;5051031;28;20513;-79
2023/06/18 07:05:12;;;;;;;25.90;17.20;;;;;;;;;;5051156;28;20437;-79
2023/06/18 07:07:38;;;;;;;22.85;17.00;;;;;;;;;;5034129;28;20230;-79
2023/06/18 07:10:04;;;;;;;25.13;18.00;;;;;;;;;;5050752;28;20167;-79
2023/06/18 07:12:30;;;;;;;24.58;18.45;;;;;;;;;;5033946;28;20048;-79
2023/06/18 07:14:56;;;;;;;21.73;16.52;;;;;;;;;;5050763;28;20115;-79
2023/06/18 07:17:22;;;;;;;25.80;17.48;;;;;;;;;;5050583;28;20048;-78
2023/06/18 07:19:49;;;;;;;21.90;16.98;;;;;;;;;;5034430;28;20103;-79
2023/06/18 07:22:15;;;;;;;22.70;16.77;;;;;;;;;;5050673;28;20041;-79
2023/06/18 07:24:41;;;;;;;22.45;16.65;;;;;;;;;;5036788;28;20041;-79
2023/06/18 07:27:07;;;;;;;23.15;17.77;;;;;;;;;;5043055;28;20049;-79
2023/06/18 07:29:33;;;;;;;22.48;15.93;;;;;;;;;;5052327;28;20403;-79
2023/06/18 07:32:00;;;;;;;20.80;15.73;;;;;;;;;;5056150;28;20375;-79
2023/06/18 07:34:26;;;;;;;19.42;14.75;;;;;;;;;;5054434;28;20516;-79
2023/06/18 07:36:52;;;;;;;19.77;14.77;;;;;;;;;;5054701;28;20083;-79
2023/06/18 07:39:18;;;;;;;17.63;14.35;;;;;;;;;;5054736;28;20456;-79
2023/06/18 07:41:47;;;;;;;19.88;15.65;;;;;;;;;;5054222;28;20049;-79
2023/06/18 07:44:14;;;;;;;18.58;14.77;;;;;;;;;;5054722;28;20462;-79
2023/06/18 07:46:42;;;;;;;20.80;14.02;;;;;;;;;;5054292;28;20033;-79
2023/06/18 07:49:08;;;;;;;19.63;14.30;;;;;;;;;;5054400;28;20048;-79
2023/06/18 07:51:35;;;;;;;17.85;12.32;;;;;;;;;;5037293;28;20041;-79
2023/06/18 07:54:01;;;;;;;17.42;13.93;;;;;;;;;;5054308;28;20568;-79
2023/06/18 07:56:27;;;;;;;17.55;13.75;;;;;;;;;;5054191;28;20386;-79
2023/06/18 07:58:53;;;;;;;16.38;12.90;;;;;;;;;;5054219;28;20045;-79
2023/06/18 08:01:19;;;;;;;17.58;12.35;;;;;;;;;;5054325;28;20083;-79
2023/06/18 08:03:45;;;;;;;16.67;13.10;;;;;;;;;;5053745;28;20041;-79
2023/06/18 08:06:12;;;;;;;15.23;12.45;;;;;;;;;;5054179;28;20041;-77
2023/06/18 08:08:38;;;;;;;13.40;11.02;;;;;;;;;;5036854;28;20101;-79
2023/06/18 08:11:04;;;;;;;16.35;11.55;;;;;;;;;;5055311;28;20076;-79
2023/06/18 08:13:30;;;;;;;12.77;11.20;;;;;;;;;;5053608;28;20448;-79
2023/06/18 08:15:56;;;;;;;14.50;12.20;;;;;;;;;;5087528;28;20095;-79
2023/06/18 08:18:22;;;;;;;14.10;11.93;;;;;;;;;;5054238;28;20481;-79
2023/06/18 08:20:49;;;;;;;16.45;11.10;;;;;;;;;;5036670;28;20056;-79
2023/06/18 08:23:15;;;;;;;16.08;10.25;;;;;;;;;;5054059;28;20090;-79
2023/06/18 08:25:41;;;;;;;11.65;8.75;;;;;;;;;;5053472;28;20053;-79
2023/06/18 08:28:07;;;;;;;12.57;10.00;;;;;;;;;;5053742;28;20045;-79
2023/06/18 08:30:33;;;;;;;12.18;9.65;;;;;;;;;;5053392;28;20129;-79
2023/06/18 08:32:59;;;;;;;10.93;9.35;;;;;;;;;;5053416;28;20039;-79
2023/06/18 08:35:25;;;;;;;10.07;8.27;;;;;;;;;;5053023;28;20072;-78
2023/06/18 08:37:51;;;;;;;9.90;8.05;;;;;;;;;;5036488;28;20116;-79
2023/06/18 08:40:20;;;;;;;12.73;7.80;;;;;;;;;;5053577;28;20041;-79
2023/06/18 08:42:46;;;;;;;11.70;7.90;;;;;;;;;;5052870;28;20041;-79
2023/06/18 08:45:13;;;;;;;10.43;8.23;;;;;;;;;;5037096;28;20444;-79
2023/06/18 08:47:40;;;;;;;10.45;7.68;;;;;;;;;;5053261;28;20570;-79
2023/06/18 08:50:07;;;;;;;11.65;8.10;;;;;;;;;;5053102;28;20120;-79
2023/06/18 08:52:33;;;;;;;11.18;7.22;;;;;;;;;;5053489;28;20414;-79
2023/06/18 08:55:02;;;;;;;9.52;7.50;;;;;;;;;;5052907;28;20056;-78
2023/06/18 08:57:32;;;;;;;9.43;7.30;;;;;;;;;;5053158;28;20045;-79
2023/06/18 08:59:59;;;;;;;11.25;7.38;;;;;;;;;;5052998;28;20052;-79
2023/06/18 09:02:26;;;;;;;10.32;7.85;;;;;;;;;;5053395;28;20490;-79
2023/06/18 09:04:53;;;;;;;11.02;7.03;;;;;;;;;;5052380;28;20047;-79
2023/06/18 09:07:20;;;;;;;10.70;6.65;;;;;;;;;;5053279;28;20048;-79
2023/06/18 09:09:47;;;;;;;8.65;6.43;;;;;;;;;;5052441;28;20509;-79
2023/06/18 09:12:13;;;;;;;12.82;7.35;;;;;;;;;;5020223;28;20548;-84
2023/06/18 09:14:39;;;;;;;9.77;6.80;;;;;;;;;;5035773;28;20045;-84
2023/06/18 09:17:05;;;;;;;11.13;7.03;;;;;;;;;;5052697;28;20087;-84
2023/06/18 09:19:32;;;;;;;8.95;6.82;;;;;;;;;;5052911;28;20075;-84
2023/06/18 09:22:12;;;;;;;8.02;6.40;;;;;;;;;;5052437;28;20132;-84
2023/06/18 09:24:38;;;;;;;10.05;6.90;;;;;;;;;;5052167;28;20102;-85
2023/06/18 09:27:05;;;;;;;10.77;7.32;;;;;;;;;;5052596;28;20104;-84
2023/06/18 09:29:37;;;;;;;14.20;7.05;;;;;;;;;;5052516;28;20510;-84
2023/06/18 09:32:06;;;;;;;9.65;7.25;;;;;;;;;;5052718;28;20055;-86
2023/06/18 09:34:32;;;;;;;9.63;7.40;;;;;;;;;;5036177;28;20033;-85
2023/06/18 09:36:58;;;;;;;10.80;6.88;;;;;;;;;;5052493;28;20436;-84
2023/06/18 09:39:25;;;;;;;10.25;7.32;;;;;;;;;;5052323;28;20056;-85
2023/06/18 09:41:52;;;;;;;9.85;7.90;;;;;;;;;;5051925;28;20056;-85
2023/06/18 09:44:19;;;;;;;9.68;6.93;;;;;;;;;;5052304;28;20068;-85
2023/06/18 09:46:46;;;;;;;9.43;7.18;;;;;;;;;;5052732;28;20489;-84
2023/06/18 09:49:19;;;;;;;9.45;7.57;;;;;;;;;;5051722;28;20072;-85
2023/06/18 09:51:46;;;;;;;9.85;7.13;;;;;;;;;;5051897;28;20490;-85
2023/06/18 09:54:12;;;;;;;11.50;7.40;;;;;;;;;;5052149;28;20045;-82
2023/06/18 09:56:39;;;;;;;8.15;6.88;;;;;;;;;;5051964;28;20102;-83
2023/06/18 09:59:05;;;;;;;10.02;7.43;;;;;;;;;;5052157;28;20119;-82
2023/06/18 10:01:51;;;;;;;8.80;7.45;;;;;;;;;;5052009;28;20482;-82
2023/06/18 10:04:18;;;;;;;7.53;6.63;;;;;;;;;;5051990;28;20049;-80
2023/06/18 10:07:02;;;;;;;13.02;7.63;;;;;;;;;;5051574;28;20049;-80
2023/06/18 10:09:39;;;;;;;9.18;7.15;;;;;;;;;;5051887;28;20040;-80
2023/06/18 10:12:06;;;;;;;9.15;7.50;;;;;;;;;;5051371;28;20067;-79
2023/06/18 10:14:33;;;;;;;9.18;7.28;;;;;;;;;;5051706;28;20048;-77
2023/06/18 10:17:08;;;;;;;11.38;7.88;;;;;;;;;;5050962;28;20119;-77
2023/06/18 10:19:37;;;;;;;8.85;7.78;;;;;;;;;;5051803;28;20530;-77
2023/06/18 10:22:04;;;;;;;11.32;7.47;;;;;;;;;;5051196;28;20048;-79
2023/06/18 10:24:42;;;;;;;11.98;8.18;;;;;;;;;;5052677;28;20037;-79
2023/06/18 10:27:08;;;;;;;11.82;7.80;;;;;;;;;;5052550;28;20037;-77
2023/06/18 10:29:35;;;;;;;10.18;7.80;;;;;;;;;;5034821;28;20529;-79
2023/06/18 10:32:02;;;;;;;11.48;8.45;;;;;;;;;;5034528;28;20060;-79
2023/06/18 10:34:28;;;;;;;10.10;7.75;;;;;;;;;;5051193;28;20044;-79
2023/06/18 10:36:55;;;;;;;11.75;7.97;;;;;;;;;;5050984;28;20133;-80
2023/06/18 10:39:22;;;;;;;10.75;8.35;;;;;;;;;;5051297;28;20124;-78
2023/06/18 10:41:49;;;;;;;11.55;7.93;;;;;;;;;;5050982;28;20048;-78
2023/06/18 10:44:15;;;;;;;9.20;7.82;;;;;;;;;;5051555;28;20114;-78
2023/06/18 10:46:41;;;;;;;14.07;8.23;;;;;;;;;;5034534;28;20045;-77
2023/06/18 10:49:14;;;;;;;11.15;7.18;;;;;;;;;;5052027;28;20048;-77
2023/06/18 10:51:40;;;;;;;10.20;6.75;;;;;;;;;;5050838;28;20053;-78
2023/06/18 10:54:20;;;;;;;8.50;6.60;;;;;;;;;;5050411;28;20053;-79
2023/06/18 10:56:51;;;;;;;9.38;6.68;;;;;;;;;;5050833;28;20049;-79
2023/06/18 10:59:32;;;;;;;9.32;7.05;;;;;;;;;;5050878;28;20105;-79
2023/06/18 11:02:02;;;;;;;7.90;6.65;;;;;;;;;;5050392;28;20045;-78
2023/06/18 11:04:35;;;;;;;7.95;6.10;;;;;;;;;;5051175;28;20520;-79
2023/06/18 11:07:31;;;;;;;12.38;6.55;;;;;;;;;;5050599;28;20124;-78
2023/06/18 11:09:58;;;;;;;;;;;;;;;;;;5025840;28;20056;-78
2023/06/18 11:12:24;;;;;;;8.18;6.30;;;;;;;;;;5050826;28;19920;-78
2023/06/18 11:15:06;;;;;;;11.00;6.30;;;;;;;;;;5050490;28;20055;-78
2023/06/18 11:17:33;;;;;;;9.13;6.35;;;;;;;;;;5039039;28;20052;-78
2023/06/18 11:20:00;;;;;;;12.52;6.28;;;;;;;;;;5050443;28;20045;-79
2023/06/18 11:22:28;;;;;;;8.80;5.97;;;;;;;;;;5034327;28;20512;-79
2023/06/18 11:24:55;;;;;;;8.15;5.93;;;;;;;;;;5051580;28;20064;-79
2023/06/18 11:27:22;;;;;;;8.45;6.10;;;;;;;;;;5034251;28;20055;-79
2023/06/18 11:29:49;;;;;;;7.07;5.63;;;;;;;;;;5050594;28;20041;-79
2023/06/18 11:32:15;;;;;;;7.53;6.22;;;;;;;;;;5050510;28;20049;-79
2023/06/18 11:34:42;;;;;;;7.45;6.07;;;;;;;;;;5050509;28;20045;-79
2023/06/18 11:37:09;;;;;;;8.07;6.30;;;;;;;;;;5050566;28;20045;-85
2023/06/18 11:39:35;;;;;;;9.45;5.85;;;;;;;;;;5051037;28;20067;-85
2023/06/18 11:42:13;;;;;;;7.50;5.95;;;;;;;;;;5050453;28;20092;-85
2023/06/18 11:44:49;;;;;;;7.25;5.95;;;;;;;;;;5051777;28;20055;-84
2023/06/18 11:47:15;;;;;;;6.93;5.38;;;;;;;;;;5052003;28;20099;-84
2023/06/18 11:49:43;;;;;;;9.32;5.97;;;;;;;;;;5051301;28;20045;-85
2023/06/18 11:52:09;;;;;;;7.90;5.20;;;;;;;;;;5051026;28;20099;-85
2023/06/18 11:54:38;;;;;;;11.05;5.40;;;;;;;;;;5050928;28;20056;-85
2023/06/18 11:57:05;;;;;;;8.98;5.47;;;;;;;;;;5034393;28;20603;-84
2023/06/18 11:59:32;;;;;;;10.52;5.40;;;;;;;;;;5034876;28;20546;-85
2023/06/18 12:02:09;;;;;;;8.95;5.13;;;;;;;;;;5051747;28;20397;-85
2023/06/18 12:04:35;;;;;;;11.35;5.72;;;;;;;;;;5051063;28;20037;-85
2023/06/18 12:07:02;;;;;;;6.72;4.60;;;;;;;;;;5034902;28;20037;-85
2023/06/18 12:09:32;;;;;;;9.60;5.40;;;;;;;;;;5051963;28;20171;-85
2023/06/18 12:12:01;;;;;;;10.10;5.78;;;;;;;;;;5054385;28;20045;-85
2023/06/18 12:14:35;;;;;;;10.02;5.90;;;;;;;;;;5056510;28;20041;-85
2023/06/18 12:17:04;;;;;;;7.88;5.30;;;;;;;;;;5056264;28;20037;-85
2023/06/18 12:19:30;;;;;;;10.15;5.93;;;;;;;;;;5055260;28;20045;-85
2023/06/18 12:21:58;;;;;;;9.98;6.88;;;;;;;;;;5089687;28;20049;-86
2023/06/18 12:24:28;;;;;;;10.05;6.60;;;;;;;;;;5055623;28;20051;-86
2023/06/18 12:26:54;;;;;;;12.20;6.60;;;;;;;;;;5055354;28;20052;-85
2023/06/18 12:29:20;;;;;;;9.63;6.40;;;;;;;;;;5054674;28;20037;-85
2023/06/18 12:32:05;;;;;;;7.88;6.70;;;;;;;;;;5055207;28;20076;-85
2023/06/18 12:34:35;;;;;;;9.23;7.30;;;;;;;;;;5054629;28;20444;-85
2023/06/18 12:37:01;;;;;;;8.13;7.00;;;;;;;;;;5053815;28;20493;-85
2023/06/18 12:39:27;;;;;;;8.77;6.15;;;;;;;;;;5053808;28;20512;-85
2023/06/18 12:41:55;;;;;;;7.85;6.20;;;;;;;;;;5037362;28;20458;-85
2023/06/18 12:44:21;;;;;;;7.53;5.80;;;;;;;;;;5053392;28;20053;-85
2023/06/18 12:46:49;;;;;;;8.40;5.68;;;;;;;;;;5053282;28;20040;-85
2023/06/18 12:49:17;;;;;;;8.40;5.57;;;;;;;;;;5053125;28;20508;-85
2023/06/18 12:51:47;;;;;;;10.63;5.60;;;;;;;;;;5053402;28;20134;-85
2023/06/18 12:54:21;;;;;;;7.93;5.80;;;;;;;;;;5036372;28;20043;-85
2023/06/18 12:56:50;;;;;;;10.07;6.00;;;;;;;;;;5053202;28;20053;-85
2023/06/18 12:59:20;;;;;;;8.52;6.18;;;;;;;;;;5052878;28;20041;-85
2023/06/18 13:01:47;;;;;;;7.65;5.60;;;;;;;;;;5053453;28;20062;-85
2023/06/18 13:04:13;;;;;;;7.22;5.40;;;;;;;;;;5052671;28;20049;-85
2023/06/18 13:06:40;;;;;;;8.65;5.50;;;;;;;;;;5052901;28;20099;-85
2023/06/18 13:09:06;;;;;;;9.35;5.47;;;;;;;;;;5052772;28;20037;-85
2023/06/18 13:11:32;;;;;;;6.00;5.07;;;;;;;;;;5053283;28;20441;-85
2023/06/18 13:13:58;;;;;;;9.90;5.43;;;;;;;;;;5036499;28;20040;-85
2023/06/18 13:16:25;;;;;;;6.20;5.22;;;;;;;;;;5052447;28;20055;-85
2023/06/18 13:18:51;;;;;;;7.18;5.07;;;;;;;;;;5052709;28;20123;-85
2023/06/18 13:21:17;;;;;;;6.55;5.30;;;;;;;;;;5052282;28;20044;-85
2023/06/18 13:23:43;;;;;;;8.73;5.57;;;;;;;;;;5036544;28;20084;-86
2023/06/18 13:26:09;;;;;;;9.18;5.30;;;;;;;;;;5052082;28;20044;-85
2023/06/18 13:28:36;;;;;;;8.38;5.45;;;;;;;;;;5052948;28;20395;-85
2023/06/18 13:31:02;;;;;;;7.30;5.15;;;;;;;;;;5052564;28;20087;-85
2023/06/18 13:33:28;;;;;;;7.13;5.72;;;;;;;;;;5052385;28;20540;-85
2023/06/18 13:35:54;;;;;;;7.85;5.60;;;;;;;;;;5052460;28;20044;-85
2023/06/18 13:38:20;;;;;;;6.63;5.70;;;;;;;;;;5036111;28;20044;-85
2023/06/18 13:40:46;;;;;;;8.35;5.70;;;;;;;;;;5052467;28;20162;-85
2023/06/18 13:43:13;;;;;;;6.40;5.45;;;;;;;;;;5035424;28;20094;-86
2023/06/18 13:45:39;;;;;;;8.32;5.47;;;;;;;;;;5052306;28;20045;-85
2023/06/18 13:48:06;;;;;;;9.52;5.60;;;;;;;;;;5053559;28;20500;-79
2023/06/18 13:50:32;;;;;;;8.00;5.60;;;;;;;;;;5035340;28;20138;-79
2023/06/18 13:52:58;;;;;;;9.18;5.80;;;;;;;;;;5052089;28;20124;-79
2023/06/18 13:55:25;;;;;;;12.23;5.88;;;;;;;;;;5044877;28;20053;-79
2023/06/18 13:57:51;;;;;;;8.63;5.78;;;;;;;;;;5045042;28;20055;-79
2023/06/18 14:00:18;;;;;;;7.28;5.95;;;;;;;;;;5051447;28;20073;-79
2023/06/18 14:02:44;;;;;;;9.07;5.97;;;;;;;;;;5051996;28;20124;-79
2023/06/18 14:05:11;;;;;;;8.10;5.50;;;;;;;;;;5035066;28;20037;-79
2023/06/18 14:07:37;;;;;;;11.30;6.20;;;;;;;;;;5053365;28;20040;-78
2023/06/18 14:10:04;;;;;;;8.35;5.65;;;;;;;;;;5051546;28;20045;-79
2023/06/18 14:12:30;;;;;;;7.43;5.43;;;;;;;;;;5051425;28;20128;-79
2023/06/18 14:14:56;;;;;;;8.27;5.90;;;;;;;;;;5051654;28;20047;-79
2023/06/18 14:17:22;;;;;;;9.13;5.55;;;;;;;;;;5051336;28;20553;-79
2023/06/18 14:19:50;;;;;;;10.15;5.97;;;;;;;;;;5051859;28;20482;-79
2023/06/18 14:22:17;;;;;;;10.07;5.75;;;;;;;;;;5051157;28;20040;-79
2023/06/18 14:24:43;;;;;;;8.25;6.00;;;;;;;;;;5051519;28;20045;-79
2023/06/18 14:27:09;;;;;;;7.05;5.88;;;;;;;;;;5051666;28;20557;-79